createdAt,value
2022-11-08T00:01:31.561Z,20.17
2022-11-08T00:03:33.414Z,19.77
2022-11-08T00:05:54.003Z,20.20
2022-11-08T00:08:14.474Z,19.20
2022-11-08T00:10:34.924Z,20.83
2022-11-08T00:12:55.739Z,19.33
2022-11-08T00:14:57.900Z,19.17
2022-11-08T00:16:59.735Z,19.65
2022-11-08T00:19:01.863Z,18.45
2022-11-08T00:21:03.849Z,20.13
2022-11-08T00:23:07.245Z,20.15
2022-11-08T00:25:10.765Z,19.20
2022-11-08T00:27:15.323Z,18.80
2022-11-08T00:29:17.103Z,19.95
2022-11-08T00:31:19.247Z,20.15
2022-11-08T00:33:21.254Z,19.65
2022-11-08T00:35:23.054Z,19.15
2022-11-08T00:37:25.815Z,19.35
2022-11-08T00:39:27.768Z,19.88
2022-11-08T00:41:29.547Z,18.75
2022-11-08T00:43:31.721Z,19.25
2022-11-08T00:45:33.481Z,18.50
2022-11-08T00:47:35.279Z,18.77
2022-11-08T00:49:37.843Z,18.35
2022-11-08T00:51:39.857Z,18.83
2022-11-08T00:53:41.851Z,17.70
2022-11-08T00:55:44.134Z,19.85
2022-11-08T00:58:01.149Z,19.40
2022-11-08T01:00:03.523Z,19.38
2022-11-08T01:02:05.813Z,19.02
2022-11-08T01:04:09.342Z,20.13
2022-11-08T01:06:13.595Z,18.95
2022-11-08T01:08:16.677Z,19.58
2022-11-08T01:10:18.913Z,19.42
2022-11-08T01:12:20.788Z,19.52
2022-11-08T01:14:23.116Z,18.92
2022-11-08T01:16:27.529Z,19.27
2022-11-08T01:18:29.486Z,18.27
2022-11-08T01:20:31.647Z,18.73
2022-11-08T01:22:33.439Z,18.95
2022-11-08T01:24:35.292Z,18.80
2022-11-08T01:26:37.472Z,19.05
2022-11-08T01:28:39.368Z,18.83
2022-11-08T01:30:42.987Z,18.75
2022-11-08T01:32:45.186Z,18.70
2022-11-08T01:34:46.973Z,18.58
2022-11-08T01:36:48.839Z,18.67
2022-11-08T01:38:51.189Z,18.40
2022-11-08T01:40:53.342Z,19.08
2022-11-08T01:42:55.209Z,18.10
2022-11-08T01:45:03.249Z,19.42
2022-11-08T01:47:05.014Z,18.98
2022-11-08T01:49:15.871Z,18.10
2022-11-08T01:51:22.023Z,19.20
2022-11-08T01:53:24.346Z,18.10
2022-11-08T01:55:31.019Z,18.30
2022-11-08T01:57:44.201Z,17.70
2022-11-08T01:59:48.028Z,18.35
2022-11-08T02:01:50.097Z,18.48
2022-11-08T02:03:52.966Z,18.45
2022-11-08T02:05:54.998Z,19.17
2022-11-08T02:08:15.093Z,18.70
2022-11-08T02:10:18.436Z,17.20
2022-11-08T02:12:22.435Z,18.95
2022-11-08T02:14:24.263Z,19.25
2022-11-08T02:16:26.437Z,18.80
2022-11-08T02:18:32.045Z,18.27
2022-11-08T02:20:34.334Z,17.63
2022-11-08T02:22:46.740Z,17.75
2022-11-08T02:24:48.583Z,18.30
2022-11-08T02:26:53.203Z,17.75
2022-11-08T02:28:55.807Z,18.42
2022-11-08T02:30:57.670Z,17.77
2022-11-08T02:32:59.517Z,17.80
2022-11-08T02:35:01.840Z,18.25
2022-11-08T02:37:04.280Z,17.92
2022-11-08T02:39:06.150Z,19.63
2022-11-08T02:41:08.633Z,19.02
2022-11-08T02:43:10.657Z,18.45
2022-11-08T02:45:12.451Z,17.77
2022-11-08T02:47:15.605Z,19.23
2022-11-08T02:51:19.613Z,18.77
2022-11-08T02:53:22.218Z,18.02
2022-11-08T02:55:24.199Z,19.00
2022-11-08T02:57:26.035Z,18.98
2022-11-08T02:59:28.221Z,19.20
2022-11-08T03:01:30.067Z,18.35
2022-11-08T03:03:31.988Z,19.20
2022-11-08T03:05:34.256Z,18.20
2022-11-08T03:07:36.171Z,18.05
2022-11-08T03:09:38.166Z,19.20
2022-11-08T03:11:40.347Z,18.33
2022-11-08T03:13:42.099Z,18.63
2022-11-08T03:15:43.972Z,17.65
2022-11-08T03:17:46.153Z,18.45
2022-11-08T03:19:47.929Z,18.90
2022-11-08T03:21:49.818Z,19.30
2022-11-08T03:23:52.009Z,19.10
2022-11-08T03:25:54.124Z,19.50
2022-11-08T03:27:56.397Z,18.67
2022-11-08T03:29:58.571Z,18.52
2022-11-08T03:32:00.658Z,18.73
2022-11-08T03:34:02.708Z,19.00
2022-11-08T03:36:05.457Z,18.42
2022-11-08T03:38:07.295Z,20.15
2022-11-08T03:40:10.008Z,19.58
2022-11-08T03:42:12.481Z,19.83
2022-11-08T03:44:14.272Z,20.77
2022-11-08T03:46:16.363Z,18.75
2022-11-08T03:48:19.269Z,19.52
2022-11-08T03:50:21.588Z,20.58
2022-11-08T03:52:23.374Z,18.98
2022-11-08T03:54:25.707Z,19.75
2022-11-08T03:56:27.505Z,19.48
2022-11-08T03:58:29.398Z,19.50
2022-11-08T04:00:31.516Z,20.20
2022-11-08T04:02:33.807Z,19.30
2022-11-08T04:04:35.627Z,19.08
2022-11-08T04:06:37.918Z,19.80
2022-11-08T04:08:39.682Z,19.65
2022-11-08T04:10:41.495Z,18.63
2022-11-08T04:13:02.159Z,20.80
2022-11-08T04:15:16.483Z,19.35
2022-11-08T04:17:18.257Z,19.98
2022-11-08T04:19:39.304Z,20.73
2022-11-08T04:21:43.743Z,19.75
2022-11-08T04:23:47.119Z,20.00
2022-11-08T04:25:56.033Z,20.75
2022-11-08T04:27:57.821Z,19.85
2022-11-08T04:29:59.647Z,19.75
2022-11-08T04:32:01.833Z,20.30
2022-11-08T04:34:03.992Z,19.75
2022-11-08T04:36:16.871Z,20.48
2022-11-08T04:38:20.260Z,19.90
2022-11-08T04:40:22.340Z,20.35
2022-11-08T04:42:24.209Z,19.45
2022-11-08T04:44:26.350Z,20.52
2022-11-08T04:46:29.460Z,19.42
2022-11-08T04:50:34.458Z,20.02
2022-11-08T04:52:36.306Z,20.35
2022-11-08T04:54:38.430Z,20.90
2022-11-08T04:56:41.970Z,20.42
2022-11-08T04:58:45.750Z,20.08
2022-11-08T05:00:47.533Z,19.63
2022-11-08T05:02:49.782Z,19.98
2022-11-08T05:04:51.634Z,20.45
2022-11-08T05:06:53.742Z,21.10
2022-11-08T05:08:56.862Z,20.42
2022-11-08T05:11:10.300Z,20.88
2022-11-08T05:15:14.282Z,20.15
2022-11-08T05:17:16.406Z,21.67
2022-11-08T05:19:38.169Z,21.70
2022-11-08T05:21:58.739Z,21.55
2022-11-08T05:24:01.684Z,22.13
2022-11-08T05:26:03.626Z,21.83
2022-11-08T05:28:05.891Z,22.13
2022-11-08T05:30:08.285Z,22.30
2022-11-08T05:32:10.070Z,22.90
2022-11-08T05:34:12.289Z,22.10
2022-11-08T05:36:16.485Z,22.60
2022-11-08T05:38:19.385Z,22.58
2022-11-08T05:40:22.444Z,22.75
2022-11-08T05:42:24.254Z,23.52
2022-11-08T05:44:26.107Z,23.02
2022-11-08T05:46:28.282Z,23.88
2022-11-08T05:48:30.390Z,23.25
2022-11-08T05:50:36.174Z,23.10
2022-11-08T05:52:38.492Z,22.60
2022-11-08T05:54:40.520Z,23.80
2022-11-08T05:56:42.385Z,22.63
2022-11-08T05:58:45.677Z,23.30
2022-11-08T06:00:47.537Z,22.08
2022-11-08T06:02:49.442Z,22.95
2022-11-08T06:04:51.718Z,21.35
2022-11-08T06:06:53.709Z,22.05
2022-11-08T06:08:55.596Z,21.55
2022-11-08T06:11:05.352Z,22.15
2022-11-08T06:13:07.232Z,20.77
2022-11-08T06:15:09.808Z,22.05
2022-11-08T06:17:12.347Z,21.20
2022-11-08T06:19:14.158Z,21.70
2022-11-08T06:21:18.791Z,20.73
2022-11-08T06:23:21.123Z,21.45
2022-11-08T06:25:23.449Z,20.00
2022-11-08T06:27:25.395Z,19.65
2022-11-08T06:29:27.575Z,18.52
2022-11-08T06:31:29.625Z,18.08
2022-11-08T06:33:32.191Z,18.40
2022-11-08T06:35:34.376Z,17.13
2022-11-08T06:37:39.218Z,17.45
2022-11-08T06:39:41.908Z,17.90
2022-11-08T06:41:44.087Z,19.33
2022-11-08T06:43:46.039Z,16.33
2022-11-08T06:45:48.236Z,16.95
2022-11-08T06:47:50.677Z,17.25
2022-11-08T06:49:52.514Z,17.95
2022-11-08T06:51:54.491Z,18.80
2022-11-08T06:53:56.660Z,18.35
2022-11-08T06:56:00.286Z,17.83
2022-11-08T06:58:02.927Z,17.98
2022-11-08T07:00:05.739Z,17.30
2022-11-08T07:02:10.256Z,17.33
2022-11-08T07:04:12.372Z,18.17
2022-11-08T07:06:14.553Z,17.40
2022-11-08T07:08:22.317Z,17.75
2022-11-08T07:10:28.864Z,18.58
2022-11-08T07:12:31.628Z,17.55
2022-11-08T07:14:33.931Z,19.55
2022-11-08T07:16:35.717Z,18.58
2022-11-08T07:18:38.053Z,18.83
2022-11-08T07:20:40.535Z,18.23
2022-11-08T07:22:42.350Z,17.33
2022-11-08T07:24:44.547Z,17.17
2022-11-08T07:26:46.359Z,18.23
2022-11-08T07:28:48.144Z,18.50
2022-11-08T07:30:50.571Z,18.75
2022-11-08T07:32:52.705Z,16.63
2022-11-08T07:34:54.496Z,34.43
2022-11-08T07:36:56.742Z,19.27
2022-11-08T07:39:00.184Z,16.00
2022-11-08T07:41:05.884Z,17.25
2022-11-08T07:43:12.712Z,15.40
2022-11-08T07:45:15.013Z,16.23
2022-11-08T07:47:16.835Z,15.82
2022-11-08T07:49:19.148Z,15.57
2022-11-08T07:51:20.974Z,16.33
2022-11-08T07:53:23.263Z,14.95
2022-11-08T07:55:26.487Z,15.68
2022-11-08T07:59:30.089Z,14.50
2022-11-08T08:01:32.898Z,14.15
2022-11-08T08:03:35.561Z,14.93
2022-11-08T08:05:41.168Z,14.98
2022-11-08T08:07:43.339Z,14.85
2022-11-08T08:09:45.233Z,13.68
2022-11-08T08:11:47.263Z,14.02
2022-11-08T08:13:49.565Z,14.57
2022-11-08T08:15:51.424Z,14.63
2022-11-08T08:17:53.579Z,13.18
2022-11-08T08:19:55.970Z,13.55
2022-11-08T08:21:57.904Z,13.17
2022-11-08T08:23:59.743Z,13.80
2022-11-08T08:26:02.650Z,14.00
2022-11-08T08:28:05.923Z,14.07
2022-11-08T08:30:08.449Z,13.00
2022-11-08T08:34:12.557Z,13.73
2022-11-08T08:36:14.363Z,13.03
2022-11-08T08:38:16.566Z,13.38
2022-11-08T08:40:18.483Z,14.07
2022-11-08T08:42:20.339Z,13.37
2022-11-08T08:44:22.507Z,14.13
2022-11-08T08:46:24.355Z,17.65
2022-11-08T08:48:26.171Z,12.88
2022-11-08T08:50:30.574Z,12.52
2022-11-08T08:52:32.410Z,12.50
2022-11-08T08:54:34.235Z,11.82
2022-11-08T08:56:36.401Z,12.18
2022-11-08T08:58:38.766Z,13.10
2022-11-08T09:03:04.754Z,11.57
2022-11-08T09:05:06.729Z,11.85
2022-11-08T09:07:08.722Z,11.90
2022-11-08T09:09:10.967Z,11.27
2022-11-08T09:11:12.834Z,10.82
2022-11-08T09:13:14.800Z,10.77
2022-11-08T09:15:17.495Z,11.05
2022-11-08T09:17:19.342Z,12.03
2022-11-08T09:19:21.107Z,11.20
2022-11-08T09:21:23.258Z,11.40
2022-11-08T09:23:25.211Z,10.20
2022-11-08T09:25:26.980Z,11.93
2022-11-08T09:27:30.861Z,11.55
2022-11-08T09:29:33.475Z,10.43
2022-11-08T09:31:35.669Z,11.25
2022-11-08T09:33:39.340Z,10.30
2022-11-08T09:35:41.170Z,10.88
2022-11-08T09:37:47.098Z,10.15
2022-11-08T09:39:52.070Z,9.38
2022-11-08T09:41:56.895Z,10.20
2022-11-08T09:44:17.285Z,10.63
2022-11-08T09:46:31.049Z,10.20
2022-11-08T09:48:36.963Z,9.85
2022-11-08T09:50:43.237Z,10.40
2022-11-08T09:53:06.702Z,9.27
2022-11-08T09:55:36.574Z,9.45
2022-11-08T09:57:50.757Z,10.30
2022-11-08T10:00:00.364Z,9.23
2022-11-08T10:02:02.453Z,9.75
2022-11-08T10:04:27.487Z,9.20
2022-11-08T10:06:44.134Z,8.43
2022-11-08T10:09:03.591Z,8.48
2022-11-08T10:11:24.320Z,8.98
2022-11-08T10:13:32.058Z,8.88
2022-11-08T10:15:43.317Z,8.10
2022-11-08T10:17:57.521Z,8.15
2022-11-08T10:20:12.707Z,7.20
2022-11-08T10:22:32.328Z,8.60
2022-11-08T10:24:54.222Z,8.27
2022-11-08T10:26:58.923Z,7.63
2022-11-08T10:29:07.786Z,7.57
2022-11-08T10:31:13.279Z,7.88
2022-11-08T10:33:22.553Z,8.40
2022-11-08T10:35:30.527Z,7.57
2022-11-08T10:37:33.484Z,8.15
2022-11-08T10:39:43.107Z,8.13
2022-11-08T10:41:50.845Z,7.30
2022-11-08T10:44:05.742Z,7.20
2022-11-08T10:46:25.218Z,5.88
2022-11-08T10:48:27.438Z,7.07
2022-11-08T10:50:45.188Z,7.18
2022-11-08T10:52:53.274Z,6.43
2022-11-08T10:54:57.777Z,6.53
2022-11-08T10:56:59.919Z,6.35
2022-11-08T10:59:01.686Z,6.78
2022-11-08T11:01:19.046Z,6.40
2022-11-08T11:03:28.915Z,6.03
2022-11-08T11:05:36.193Z,6.22
2022-11-08T11:07:38.203Z,7.05
2022-11-08T11:09:40.570Z,6.28
2022-11-08T11:11:42.591Z,5.90
2022-11-08T11:13:44.577Z,5.65
2022-11-08T11:16:07.200Z,5.20
2022-11-08T11:18:21.944Z,5.38
2022-11-08T11:20:24.198Z,5.50
2022-11-08T11:22:34.450Z,5.03
2022-11-08T11:24:46.420Z,5.05
2022-11-08T11:26:59.538Z,5.45
2022-11-08T11:29:13.605Z,5.40
2022-11-08T11:31:17.192Z,4.70
2022-11-08T11:33:26.811Z,4.75
2022-11-08T11:35:36.945Z,4.47
2022-11-08T11:37:46.990Z,4.05
2022-11-08T11:40:07.442Z,3.53
2022-11-08T11:42:43.696Z,4.85
2022-11-08T11:44:55.554Z,4.70
2022-11-08T11:47:06.001Z,4.32
2022-11-08T11:49:17.778Z,5.60
2022-11-08T11:51:19.728Z,5.55
2022-11-08T11:53:33.050Z,5.45
2022-11-08T11:56:06.996Z,5.65
2022-11-08T11:58:30.286Z,4.88
2022-11-08T12:00:39.747Z,4.90
2022-11-08T12:02:58.967Z,4.95
2022-11-08T12:05:21.848Z,6.00
2022-11-08T12:07:28.542Z,5.30
2022-11-08T12:09:57.553Z,5.22
2022-11-08T12:12:25.926Z,5.25
2022-11-08T12:14:33.837Z,5.05
2022-11-08T12:16:46.442Z,5.32
2022-11-08T12:18:57.102Z,4.78
2022-11-08T12:21:15.152Z,5.32
2022-11-08T12:23:32.479Z,5.38
2022-11-08T12:25:51.886Z,5.18
2022-11-08T12:28:02.049Z,5.35
2022-11-08T12:30:10.527Z,5.45
2022-11-08T12:32:29.387Z,5.00
2022-11-08T12:34:42.845Z,4.75
2022-11-08T12:37:29.053Z,8.27
2022-11-08T12:39:37.439Z,5.28
2022-11-08T12:41:59.599Z,4.95
2022-11-08T12:44:32.581Z,4.65
2022-11-08T12:47:00.810Z,4.53
2022-11-08T12:49:43.759Z,5.32
2022-11-08T12:52:06.847Z,4.82
2022-11-08T12:54:23.023Z,4.97
2022-11-08T12:56:29.848Z,4.68
2022-11-08T12:58:54.452Z,4.93
2022-11-08T13:01:02.464Z,4.93
2022-11-08T13:03:22.707Z,4.75
2022-11-08T13:05:40.358Z,5.10
2022-11-08T13:07:52.385Z,4.93
2022-11-08T13:10:13.042Z,5.35
2022-11-08T13:12:33.282Z,5.10
2022-11-08T13:14:40.976Z,5.60
2022-11-08T13:16:46.444Z,5.90
2022-11-08T13:18:53.826Z,5.50
2022-11-08T13:20:56.575Z,5.50
2022-11-08T13:23:00.557Z,5.93
2022-11-08T13:25:28.317Z,5.85
2022-11-08T13:27:35.917Z,6.10
2022-11-08T13:29:38.911Z,6.85
2022-11-08T13:33:56.675Z,5.95
2022-11-08T13:36:19.211Z,6.05
2022-11-08T13:38:40.464Z,6.63
2022-11-08T13:41:01.067Z,6.55
2022-11-08T13:43:25.191Z,7.20
2022-11-08T13:45:33.834Z,6.82
2022-11-08T13:47:40.059Z,7.07
2022-11-08T13:49:42.920Z,7.03
2022-11-08T13:53:51.502Z,7.00
2022-11-08T13:55:53.878Z,7.03
2022-11-08T13:57:59.305Z,7.38
2022-11-08T14:00:01.782Z,7.85
2022-11-08T14:02:30.292Z,7.95
2022-11-08T14:04:40.858Z,7.00
2022-11-08T14:07:01.454Z,7.20
2022-11-08T14:09:07.779Z,6.90
2022-11-08T14:11:21.899Z,7.57
2022-11-08T14:13:32.634Z,7.00
2022-11-08T14:15:46.599Z,7.95
2022-11-08T14:18:00.123Z,7.93
2022-11-08T14:20:28.361Z,7.80
2022-11-08T14:22:30.626Z,8.40
2022-11-08T14:24:37.354Z,7.88
2022-11-08T14:26:46.947Z,8.27
2022-11-08T14:28:50.653Z,7.80
2022-11-08T14:30:53.019Z,7.10
2022-11-08T14:35:25.881Z,8.20
2022-11-08T14:37:28.341Z,7.90
2022-11-08T14:39:36.848Z,8.90
2022-11-08T14:41:39.693Z,8.25
2022-11-08T14:43:44.054Z,9.18
2022-11-08T14:45:46.551Z,8.70
2022-11-08T14:48:03.279Z,8.00
2022-11-08T14:50:16.316Z,7.97
2022-11-08T14:52:20.219Z,8.52
2022-11-08T14:54:26.996Z,8.60
2022-11-08T14:56:37.825Z,8.75
2022-11-08T14:58:40.071Z,8.40
2022-11-08T15:00:44.060Z,8.55
2022-11-08T15:02:52.068Z,8.98
2022-11-08T15:04:54.568Z,9.30
2022-11-08T15:06:59.063Z,7.88
2022-11-08T15:09:02.705Z,11.63
2022-11-08T15:11:28.375Z,8.50
2022-11-08T15:13:38.619Z,9.52
2022-11-08T15:15:40.709Z,10.50
2022-11-08T15:17:42.987Z,9.05
2022-11-08T15:19:46.467Z,9.43
2022-11-08T15:21:51.562Z,9.90
2022-11-08T15:23:55.034Z,9.60
2022-11-08T15:25:59.476Z,8.80
2022-11-08T15:28:21.468Z,8.82
2022-11-08T15:30:29.871Z,8.77
2022-11-08T15:32:39.868Z,8.45
2022-11-08T15:34:41.998Z,9.18
2022-11-08T15:36:44.258Z,7.82
2022-11-08T15:38:49.657Z,8.55
2022-11-08T15:40:54.967Z,9.10
2022-11-08T15:42:57.979Z,9.00
2022-11-08T15:45:26.134Z,9.50
2022-11-08T15:47:46.123Z,9.93
2022-11-08T15:49:48.650Z,9.55
2022-11-08T15:51:52.942Z,9.32
2022-11-08T15:53:54.801Z,9.50
2022-11-08T15:56:01.311Z,9.73
2022-11-08T15:58:04.763Z,8.98
2022-11-08T16:00:07.435Z,9.15
2022-11-08T16:04:14.317Z,8.50
2022-11-08T16:06:16.314Z,7.75
2022-11-08T16:08:20.921Z,10.00
2022-11-08T16:10:31.332Z,9.68
2022-11-08T16:12:33.211Z,9.45
2022-11-08T16:14:35.366Z,11.73
2022-11-08T16:16:37.229Z,10.43
2022-11-08T16:18:40.218Z,18.75
2022-11-08T16:20:42.431Z,15.32
2022-11-08T16:22:44.606Z,11.00
2022-11-08T16:24:46.415Z,10.65
2022-11-08T16:26:49.257Z,9.25
2022-11-08T16:28:51.148Z,9.90
2022-11-08T16:30:53.688Z,10.27
2022-11-08T16:32:56.504Z,11.20
2022-11-08T16:34:58.427Z,11.07
2022-11-08T16:37:00.650Z,10.30
2022-11-08T16:39:03.979Z,10.93
2022-11-08T16:41:06.235Z,10.68
2022-11-08T16:43:13.149Z,11.53
2022-11-08T16:45:16.867Z,10.10
2022-11-08T16:47:19.257Z,11.18
2022-11-08T16:49:22.431Z,12.73
2022-11-08T16:51:27.729Z,12.73
2022-11-08T16:53:30.235Z,11.32
2022-11-08T16:55:31.994Z,12.38
2022-11-08T16:57:35.370Z,11.98
2022-11-08T16:59:37.456Z,12.13
2022-11-08T17:01:39.988Z,13.15
2022-11-08T17:03:42.181Z,12.63
2022-11-08T17:05:44.619Z,12.50
2022-11-08T17:07:46.847Z,11.93
2022-11-08T17:09:49.415Z,12.32
2022-11-08T17:11:51.181Z,12.35
2022-11-08T17:13:53.162Z,12.88
2022-11-08T17:15:55.395Z,12.13
2022-11-08T17:17:58.868Z,10.85
2022-11-08T17:20:00.816Z,11.23
2022-11-08T17:22:03.045Z,12.10
2022-11-08T17:24:05.440Z,11.27
2022-11-08T17:26:09.123Z,10.95
2022-11-08T17:28:12.562Z,11.00
2022-11-08T17:32:16.827Z,11.10
2022-11-08T17:36:21.868Z,10.68
2022-11-08T17:38:23.970Z,11.38
2022-11-08T17:40:26.584Z,10.95
2022-11-08T17:42:33.979Z,11.02
2022-11-08T17:44:39.704Z,16.02
2022-11-08T17:46:41.935Z,12.52
2022-11-08T17:48:43.776Z,11.57
2022-11-08T17:50:48.892Z,12.70
2022-11-08T17:52:53.778Z,12.52
2022-11-08T17:54:55.893Z,12.75
2022-11-08T17:56:58.300Z,15.02
2022-11-08T17:59:00.552Z,12.77
2022-11-08T18:01:05.017Z,14.45
2022-11-08T18:03:12.495Z,14.18
2022-11-08T18:05:14.842Z,14.48
2022-11-08T18:07:16.780Z,14.07
2022-11-08T18:09:18.987Z,13.85
2022-11-08T18:11:21.541Z,13.88
2022-11-08T18:13:24.688Z,14.55
2022-11-08T18:15:26.791Z,15.20
2022-11-08T18:17:29.159Z,15.77
2022-11-08T18:19:31.232Z,16.73
2022-11-08T18:21:33.110Z,15.88
2022-11-08T18:23:35.543Z,16.80
2022-11-08T18:25:37.345Z,17.58
2022-11-08T18:27:39.522Z,16.77
2022-11-08T18:29:41.634Z,17.52
2022-11-08T18:31:43.621Z,17.05
2022-11-08T18:33:47.784Z,18.63
2022-11-08T18:35:50.023Z,18.92
2022-11-08T18:37:51.865Z,19.77
2022-11-08T18:39:53.761Z,19.80
2022-11-08T18:41:55.925Z,21.40
2022-11-08T18:43:59.691Z,20.80
2022-11-08T18:46:05.670Z,19.10
2022-11-08T18:48:08.111Z,20.67
2022-11-08T18:50:10.713Z,20.77
2022-11-08T18:52:12.776Z,21.05
2022-11-08T18:54:14.965Z,21.10
2022-11-08T18:56:16.938Z,21.95
2022-11-08T18:58:19.760Z,29.33
2022-11-08T19:00:22.014Z,21.98
2022-11-08T19:02:24.252Z,22.70
2022-11-08T19:04:26.143Z,22.60
2022-11-08T19:06:28.458Z,23.42
2022-11-08T19:08:30.819Z,23.50
2022-11-08T19:10:32.945Z,22.50
2022-11-08T19:12:35.331Z,24.55
2022-11-08T19:14:37.616Z,23.35
2022-11-08T19:16:39.407Z,23.33
2022-11-08T19:18:43.183Z,24.50
2022-11-08T19:20:44.952Z,23.42
2022-11-08T19:22:47.019Z,23.42
2022-11-08T19:24:49.183Z,24.98
2022-11-08T19:26:50.979Z,25.95
2022-11-08T19:28:57.125Z,25.02
2022-11-08T19:30:59.650Z,24.95
2022-11-08T19:33:01.509Z,25.20
2022-11-08T19:35:03.337Z,24.55
2022-11-08T19:37:05.930Z,24.73
2022-11-08T19:39:08.032Z,24.95
2022-11-08T19:41:13.328Z,25.63
2022-11-08T19:43:17.271Z,24.70
2022-11-08T19:45:19.296Z,25.20
2022-11-08T19:47:21.127Z,23.95
2022-11-08T19:49:26.321Z,24.23
2022-11-08T19:51:30.749Z,22.83
2022-11-08T19:53:32.778Z,24.88
2022-11-08T19:55:35.042Z,24.70
2022-11-08T19:57:36.954Z,25.02
2022-11-08T19:59:38.737Z,25.63
2022-11-08T20:01:41.208Z,26.85
2022-11-08T20:03:43.929Z,25.98
2022-11-08T20:05:50.331Z,24.05
2022-11-08T20:07:52.476Z,24.25
2022-11-08T20:09:56.033Z,24.55
2022-11-08T20:11:57.898Z,24.75
2022-11-08T20:14:01.215Z,24.77
2022-11-08T20:16:14.899Z,29.30
2022-11-08T20:18:17.404Z,24.42
2022-11-08T20:20:20.335Z,25.27
2022-11-08T20:22:22.214Z,24.85
2022-11-08T20:24:24.094Z,24.02
2022-11-08T20:26:26.884Z,25.27
2022-11-08T20:28:28.814Z,24.05
2022-11-08T20:30:31.027Z,25.13
2022-11-08T20:32:33.523Z,23.17
2022-11-08T20:34:35.343Z,23.85
2022-11-08T20:36:37.880Z,25.30
2022-11-08T20:40:43.973Z,23.90
2022-11-08T20:42:46.128Z,24.17
2022-11-08T20:44:48.456Z,24.75
2022-11-08T20:46:51.195Z,26.17
2022-11-08T20:49:00.188Z,24.45
2022-11-08T20:51:05.132Z,24.67
2022-11-08T20:53:06.975Z,24.42
2022-11-08T20:55:09.175Z,25.02
2022-11-08T20:57:11.384Z,25.35
2022-11-08T20:59:14.903Z,24.85
2022-11-08T21:01:20.248Z,26.85
2022-11-08T21:03:23.173Z,25.65
2022-11-08T21:05:25.196Z,25.92
2022-11-08T21:09:51.016Z,26.08
2022-11-08T21:11:55.218Z,25.10
2022-11-08T21:13:57.166Z,25.58
2022-11-08T21:16:19.800Z,27.80
2022-11-08T21:18:22.618Z,26.40
2022-11-08T21:20:24.547Z,26.58
2022-11-08T21:22:26.897Z,26.40
2022-11-08T21:24:28.714Z,25.15
2022-11-08T21:26:36.337Z,26.88
2022-11-08T21:28:39.259Z,26.35
2022-11-08T21:30:43.965Z,26.88
2022-11-08T21:32:45.862Z,27.17
2022-11-08T21:34:48.297Z,25.55
2022-11-08T21:36:50.123Z,27.57
2022-11-08T21:38:52.088Z,25.90
2022-11-08T21:40:55.061Z,26.90
2022-11-08T21:42:56.887Z,26.58
2022-11-08T21:44:58.654Z,25.85
2022-11-08T21:47:00.824Z,26.27
2022-11-08T21:49:02.858Z,25.65
2022-11-08T21:51:04.951Z,27.17
2022-11-08T21:53:08.211Z,25.83
2022-11-08T21:55:11.746Z,25.27
2022-11-08T21:57:13.615Z,24.77
2022-11-08T21:59:16.064Z,27.92
2022-11-08T22:01:18.148Z,25.67
2022-11-08T22:03:20.133Z,25.27
2022-11-08T22:05:22.726Z,27.10
2022-11-08T22:07:24.675Z,25.85
2022-11-08T22:09:26.575Z,25.92
2022-11-08T22:11:28.953Z,25.55
2022-11-08T22:13:30.930Z,25.95
2022-11-08T22:15:32.717Z,25.60
2022-11-08T22:17:35.740Z,24.58
2022-11-08T22:19:37.813Z,26.15
2022-11-08T22:21:40.524Z,25.77
2022-11-08T22:23:43.308Z,25.50
2022-11-08T22:25:45.165Z,25.77
2022-11-08T22:27:46.945Z,26.05
2022-11-08T22:29:49.109Z,24.17
2022-11-08T22:31:50.958Z,25.55
2022-11-08T22:33:52.875Z,25.42
2022-11-08T22:35:55.177Z,25.25
2022-11-08T22:37:57.085Z,24.92
2022-11-08T22:39:59.122Z,26.10
2022-11-08T22:42:01.413Z,25.20
2022-11-08T22:44:06.238Z,25.73
2022-11-08T22:46:11.015Z,25.38
2022-11-08T22:48:13.294Z,24.90
2022-11-08T22:50:15.107Z,25.25
2022-11-08T22:52:17.095Z,26.20
2022-11-08T22:54:19.217Z,24.95
2022-11-08T22:56:21.488Z,25.92
2022-11-08T22:58:23.278Z,26.73
2022-11-08T23:00:25.662Z,25.70
2022-11-08T23:02:32.706Z,26.10
2022-11-08T23:04:34.984Z,27.08
2022-11-08T23:06:40.882Z,26.23
2022-11-08T23:08:43.868Z,25.70
2022-11-08T23:11:04.885Z,28.42
2022-11-08T23:13:26.918Z,26.80
2022-11-08T23:15:47.628Z,26.92
2022-11-08T23:17:49.401Z,26.92
2022-11-08T23:20:10.236Z,27.17
2022-11-08T23:22:35.729Z,25.63
2022-11-08T23:24:37.821Z,27.70
2022-11-08T23:26:58.451Z,26.38
2022-11-08T23:29:18.964Z,27.63
2022-11-08T23:31:35.661Z,27.13
2022-11-08T23:33:43.722Z,27.42
2022-11-08T23:36:05.474Z,26.60
2022-11-08T23:38:07.289Z,26.42
2022-11-08T23:40:30.187Z,27.45
2022-11-08T23:42:51.089Z,25.77
2022-11-08T23:44:52.897Z,26.40
2022-11-08T23:46:58.012Z,27.40
2022-11-08T23:48:59.889Z,27.83
2022-11-08T23:51:02.205Z,26.65
2022-11-08T23:53:04.351Z,26.70
2022-11-08T23:55:06.664Z,25.83
2022-11-08T23:57:08.465Z,26.80
2022-11-08T23:59:11.858Z,27.37
